San Diego, California
Current Conditions -  °F | °C
As of 3:51 PM on Saturday 20 Dec 2014 (Local Time) from KSAN Reporting Station
Broken Clouds Broken Clouds  
Wind Chill: 63°   Ceiling: 3600
Heat Index: 63°   Visibility: 10mi
Dew Point: 53°   Wind: 5mph
Humidity: 70%   Direction: 280°W
Pressure: 30.15"   Gusts: NA
Location:  32.72°N, 117.16°W
Report Text: KSAN 202351Z 28004KT 10SM FEW028 BKN036 BKN090 BKN200 17/12 A3015 RMK AO2 SLP207 T01720117 10189 20150 57001
Loading
Personal Weather Stations






























Interactive Weather Map New forecast layout! Learn more

10-Day Weather Forecast

Advertisements
Track Severe Weather on mobile